sensor_id;sensor_type;location;lat;lon;timestamp;P1;durP1;ratioP1;P2;durP2;ratioP2
20597;SDS011;10457;48.770;11.446;2023-02-24T00:03:40;24.30;;;14.43;;
20597;SDS011;10457;48.770;11.446;2023-02-24T00:09:04;20.83;;;13.70;;
20597;SDS011;10457;48.770;11.446;2023-02-24T00:14:28;21.37;;;13.70;;
20597;SDS011;10457;48.770;11.446;2023-02-24T00:19:53;18.97;;;13.07;;
20597;SDS011;10457;48.770;11.446;2023-02-24T00:25:16;19.23;;;13.60;;
20597;SDS011;10457;48.770;11.446;2023-02-24T00:30:38;22.40;;;13.73;;
20597;SDS011;10457;48.770;11.446;2023-02-24T00:36:03;25.13;;;13.80;;
20597;SDS011;10457;48.770;11.446;2023-02-24T00:41:30;21.30;;;13.60;;
20597;SDS011;10457;48.770;11.446;2023-02-24T00:46:52;24.00;;;13.67;;
20597;SDS011;10457;48.770;11.446;2023-02-24T00:52:15;21.03;;;14.30;;
20597;SDS011;10457;48.770;11.446;2023-02-24T00:57:40;22.17;;;14.03;;
20597;SDS011;10457;48.770;11.446;2023-02-24T01:03:03;16.87;;;13.53;;
20597;SDS011;10457;48.770;11.446;2023-02-24T01:08:24;21.60;;;13.60;;
20597;SDS011;10457;48.770;11.446;2023-02-24T01:13:47;33.23;;;17.00;;
20597;SDS011;10457;48.770;11.446;2023-02-24T01:19:09;32.63;;;17.97;;
20597;SDS011;10457;48.770;11.446;2023-02-24T01:24:34;28.20;;;17.57;;
20597;SDS011;10457;48.770;11.446;2023-02-24T01:30:00;29.50;;;17.03;;
20597;SDS011;10457;48.770;11.446;2023-02-24T01:35:24;28.70;;;18.30;;
20597;SDS011;10457;48.770;11.446;2023-02-24T01:40:45;25.60;;;18.83;;
20597;SDS011;10457;48.770;11.446;2023-02-24T01:46:18;29.03;;;17.57;;
20597;SDS011;10457;48.770;11.446;2023-02-24T01:51:42;34.70;;;19.53;;
20597;SDS011;10457;48.770;11.446;2023-02-24T01:57:08;30.00;;;19.17;;
20597;SDS011;10457;48.770;11.446;2023-02-24T02:02:36;30.27;;;20.67;;
20597;SDS011;10457;48.770;11.446;2023-02-24T02:08:00;28.97;;;20.83;;
20597;SDS011;10457;48.770;11.446;2023-02-24T02:13:23;38.67;;;23.23;;
20597;SDS011;10457;48.770;11.446;2023-02-24T02:18:51;32.93;;;21.20;;
20597;SDS011;10457;48.770;11.446;2023-02-24T02:24:26;27.07;;;19.07;;
20597;SDS011;10457;48.770;11.446;2023-02-24T02:36:09;29.37;;;19.90;;
20597;SDS011;10457;48.770;11.446;2023-02-24T02:41:40;29.23;;;20.67;;
20597;SDS011;10457;48.770;11.446;2023-02-24T02:47:12;35.70;;;20.30;;
20597;SDS011;10457;48.770;11.446;2023-02-24T02:52:44;42.27;;;22.70;;
20597;SDS011;10457;48.770;11.446;2023-02-24T02:58:14;36.07;;;21.67;;
20597;SDS011;10457;48.770;11.446;2023-02-24T03:03:42;33.60;;;21.17;;
20597;SDS011;10457;48.770;11.446;2023-02-24T03:09:11;34.67;;;20.83;;
20597;SDS011;10457;48.770;11.446;2023-02-24T03:14:37;36.37;;;21.77;;
20597;SDS011;10457;48.770;11.446;2023-02-24T03:20:02;34.97;;;21.53;;
20597;SDS011;10457;48.770;11.446;2023-02-24T03:25:37;30.40;;;20.10;;
20597;SDS011;10457;48.770;11.446;2023-02-24T03:31:06;39.83;;;21.90;;
20597;SDS011;10457;48.770;11.446;2023-02-24T03:36:30;37.13;;;21.93;;
20597;SDS011;10457;48.770;11.446;2023-02-24T03:41:54;33.13;;;21.97;;
20597;SDS011;10457;48.770;11.446;2023-02-24T03:47:26;36.33;;;22.83;;
20597;SDS011;10457;48.770;11.446;2023-02-24T03:52:50;31.13;;;20.97;;
20597;SDS011;10457;48.770;11.446;2023-02-24T03:58:23;36.83;;;22.20;;
20597;SDS011;10457;48.770;11.446;2023-02-24T04:03:55;36.53;;;23.27;;
20597;SDS011;10457;48.770;11.446;2023-02-24T04:09:36;31.23;;;19.70;;
20597;SDS011;10457;48.770;11.446;2023-02-24T04:15:10;34.17;;;22.10;;
20597;SDS011;10457;48.770;11.446;2023-02-24T04:20:40;37.70;;;23.37;;
20597;SDS011;10457;48.770;11.446;2023-02-24T04:26:05;40.83;;;22.40;;
20597;SDS011;10457;48.770;11.446;2023-02-24T04:31:31;36.73;;;22.73;;
20597;SDS011;10457;48.770;11.446;2023-02-24T04:36:55;33.67;;;21.87;;
20597;SDS011;10457;48.770;11.446;2023-02-24T04:42:18;35.60;;;21.03;;
20597;SDS011;10457;48.770;11.446;2023-02-24T04:47:42;31.60;;;22.80;;
20597;SDS011;10457;48.770;11.446;2023-02-24T04:53:08;34.00;;;21.03;;
20597;SDS011;10457;48.770;11.446;2023-02-24T04:58:31;31.07;;;20.47;;
20597;SDS011;10457;48.770;11.446;2023-02-24T05:03:55;36.47;;;20.60;;
20597;SDS011;10457;48.770;11.446;2023-02-24T05:09:18;35.30;;;21.97;;
20597;SDS011;10457;48.770;11.446;2023-02-24T05:14:40;34.97;;;20.83;;
20597;SDS011;10457;48.770;11.446;2023-02-24T05:20:05;39.00;;;22.43;;
20597;SDS011;10457;48.770;11.446;2023-02-24T05:25:46;39.97;;;21.53;;
20597;SDS011;10457;48.770;11.446;2023-02-24T05:31:09;36.47;;;21.50;;
20597;SDS011;10457;48.770;11.446;2023-02-24T05:36:36;37.80;;;22.37;;
20597;SDS011;10457;48.770;11.446;2023-02-24T05:41:59;33.40;;;20.17;;
20597;SDS011;10457;48.770;11.446;2023-02-24T05:47:25;35.27;;;19.40;;
20597;SDS011;10457;48.770;11.446;2023-02-24T05:52:48;38.27;;;20.53;;
20597;SDS011;10457;48.770;11.446;2023-02-24T05:58:09;33.60;;;21.00;;
20597;SDS011;10457;48.770;11.446;2023-02-24T06:03:32;35.67;;;20.27;;
20597;SDS011;10457;48.770;11.446;2023-02-24T06:08:55;37.33;;;20.07;;
20597;SDS011;10457;48.770;11.446;2023-02-24T06:14:20;32.90;;;21.07;;
20597;SDS011;10457;48.770;11.446;2023-02-24T06:19:41;36.33;;;20.13;;
20597;SDS011;10457;48.770;11.446;2023-02-24T06:25:04;36.37;;;22.23;;
20597;SDS011;10457;48.770;11.446;2023-02-24T06:30:29;37.07;;;21.67;;
20597;SDS011;10457;48.770;11.446;2023-02-24T06:35:51;34.47;;;21.43;;
20597;SDS011;10457;48.770;11.446;2023-02-24T06:41:14;34.60;;;22.30;;
20597;SDS011;10457;48.770;11.446;2023-02-24T06:46:36;36.73;;;22.87;;
20597;SDS011;10457;48.770;11.446;2023-02-24T06:51:57;38.93;;;23.77;;
20597;SDS011;10457;48.770;11.446;2023-02-24T06:57:20;35.87;;;22.90;;
20597;SDS011;10457;48.770;11.446;2023-02-24T07:02:42;35.03;;;22.03;;
20597;SDS011;10457;48.770;11.446;2023-02-24T07:08:03;39.23;;;23.77;;
20597;SDS011;10457;48.770;11.446;2023-02-24T07:13:28;33.30;;;22.27;;
20597;SDS011;10457;48.770;11.446;2023-02-24T07:18:52;32.77;;;21.30;;
20597;SDS011;10457;48.770;11.446;2023-02-24T07:24:15;45.93;;;23.90;;
20597;SDS011;10457;48.770;11.446;2023-02-24T07:29:44;37.97;;;22.57;;
20597;SDS011;10457;48.770;11.446;2023-02-24T07:35:08;39.70;;;23.10;;
20597;SDS011;10457;48.770;11.446;2023-02-24T07:40:33;40.63;;;24.53;;
20597;SDS011;10457;48.770;11.446;2023-02-24T07:45:56;33.90;;;22.07;;
20597;SDS011;10457;48.770;11.446;2023-02-24T07:51:18;57.87;;;35.37;;
20597;SDS011;10457;48.770;11.446;2023-02-24T07:56:43;44.83;;;29.87;;
20597;SDS011;10457;48.770;11.446;2023-02-24T08:02:16;50.70;;;27.67;;
20597;SDS011;10457;48.770;11.446;2023-02-24T08:07:38;39.37;;;26.00;;
20597;SDS011;10457;48.770;11.446;2023-02-24T08:12:59;65.30;;;35.97;;
20597;SDS011;10457;48.770;11.446;2023-02-24T08:18:23;81.17;;;50.10;;
20597;SDS011;10457;48.770;11.446;2023-02-24T08:23:46;92.20;;;53.73;;
20597;SDS011;10457;48.770;11.446;2023-02-24T08:29:08;79.13;;;47.63;;
20597;SDS011;10457;48.770;11.446;2023-02-24T08:34:31;137.30;;;79.60;;
20597;SDS011;10457;48.770;11.446;2023-02-24T08:39:53;43.67;;;27.33;;
20597;SDS011;10457;48.770;11.446;2023-02-24T08:45:15;45.30;;;31.20;;
20597;SDS011;10457;48.770;11.446;2023-02-24T08:50:37;50.50;;;27.20;;
20597;SDS011;10457;48.770;11.446;2023-02-24T08:55:59;41.43;;;26.27;;
20597;SDS011;10457;48.770;11.446;2023-02-24T09:01:29;40.50;;;23.07;;
20597;SDS011;10457;48.770;11.446;2023-02-24T09:06:54;41.93;;;23.33;;
20597;SDS011;10457;48.770;11.446;2023-02-24T09:12:16;32.27;;;22.13;;
20597;SDS011;10457;48.770;11.446;2023-02-24T09:17:44;44.33;;;27.50;;
20597;SDS011;10457;48.770;11.446;2023-02-24T09:23:26;44.93;;;28.63;;
20597;SDS011;10457;48.770;11.446;2023-02-24T09:28:49;42.70;;;25.03;;
20597;SDS011;10457;48.770;11.446;2023-02-24T09:34:15;33.00;;;20.47;;
20597;SDS011;10457;48.770;11.446;2023-02-24T09:39:39;53.00;;;30.07;;
20597;SDS011;10457;48.770;11.446;2023-02-24T09:45:17;42.00;;;25.03;;
20597;SDS011;10457;48.770;11.446;2023-02-24T09:50:51;46.70;;;25.67;;
20597;SDS011;10457;48.770;11.446;2023-02-24T09:56:27;41.83;;;21.87;;
20597;SDS011;10457;48.770;11.446;2023-02-24T10:01:56;44.27;;;24.27;;
20597;SDS011;10457;48.770;11.446;2023-02-24T10:07:26;48.87;;;26.80;;
20597;SDS011;10457;48.770;11.446;2023-02-24T10:13:00;44.27;;;25.50;;
20597;SDS011;10457;48.770;11.446;2023-02-24T10:18:36;43.70;;;25.40;;
20597;SDS011;10457;48.770;11.446;2023-02-24T10:24:06;43.73;;;25.37;;
20597;SDS011;10457;48.770;11.446;2023-02-24T10:29:40;47.87;;;26.63;;
20597;SDS011;10457;48.770;11.446;2023-02-24T10:35:38;52.70;;;30.40;;
20597;SDS011;10457;48.770;11.446;2023-02-24T10:41:01;49.03;;;27.83;;
20597;SDS011;10457;48.770;11.446;2023-02-24T10:46:27;49.17;;;26.53;;
20597;SDS011;10457;48.770;11.446;2023-02-24T10:51:52;45.30;;;24.93;;
20597;SDS011;10457;48.770;11.446;2023-02-24T10:57:14;48.50;;;27.27;;
20597;SDS011;10457;48.770;11.446;2023-02-24T11:02:45;46.10;;;27.97;;
20597;SDS011;10457;48.770;11.446;2023-02-24T11:08:25;52.87;;;27.07;;
20597;SDS011;10457;48.770;11.446;2023-02-24T11:13:58;57.13;;;26.63;;
20597;SDS011;10457;48.770;11.446;2023-02-24T11:19:40;46.07;;;24.73;;
20597;SDS011;10457;48.770;11.446;2023-02-24T11:25:06;45.43;;;24.37;;
20597;SDS011;10457;48.770;11.446;2023-02-24T11:30:44;48.03;;;26.73;;
20597;SDS011;10457;48.770;11.446;2023-02-24T11:36:17;45.87;;;24.23;;
20597;SDS011;10457;48.770;11.446;2023-02-24T11:41:48;43.90;;;21.70;;
20597;SDS011;10457;48.770;11.446;2023-02-24T11:47:15;138.07;;;79.27;;
20597;SDS011;10457;48.770;11.446;2023-02-24T11:52:43;51.83;;;31.47;;
20597;SDS011;10457;48.770;11.446;2023-02-24T11:58:11;44.27;;;24.80;;
20597;SDS011;10457;48.770;11.446;2023-02-24T12:03:41;48.23;;;25.20;;
20597;SDS011;10457;48.770;11.446;2023-02-24T12:09:13;50.63;;;27.70;;
20597;SDS011;10457;48.770;11.446;2023-02-24T12:14:40;46.53;;;25.30;;
20597;SDS011;10457;48.770;11.446;2023-02-24T12:20:13;51.43;;;27.00;;
20597;SDS011;10457;48.770;11.446;2023-02-24T12:25:48;56.87;;;28.67;;
20597;SDS011;10457;48.770;11.446;2023-02-24T12:31:22;51.83;;;27.07;;
20597;SDS011;10457;48.770;11.446;2023-02-24T12:36:58;46.47;;;26.30;;
20597;SDS011;10457;48.770;11.446;2023-02-24T12:42:39;60.60;;;29.50;;
20597;SDS011;10457;48.770;11.446;2023-02-24T12:48:10;60.20;;;27.43;;
20597;SDS011;10457;48.770;11.446;2023-02-24T12:53:51;53.17;;;27.83;;
20597;SDS011;10457;48.770;11.446;2023-02-24T12:59:24;57.83;;;29.03;;
20597;SDS011;10457;48.770;11.446;2023-02-24T13:04:51;62.40;;;30.70;;
20597;SDS011;10457;48.770;11.446;2023-02-24T13:10:27;59.30;;;26.60;;
20597;SDS011;10457;48.770;11.446;2023-02-24T13:15:57;56.83;;;28.00;;
20597;SDS011;10457;48.770;11.446;2023-02-24T13:21:20;52.47;;;27.50;;
20597;SDS011;10457;48.770;11.446;2023-02-24T13:26:43;50.20;;;25.07;;
20597;SDS011;10457;48.770;11.446;2023-02-24T13:32:19;44.07;;;22.20;;
20597;SDS011;10457;48.770;11.446;2023-02-24T13:37:47;50.40;;;26.23;;
20597;SDS011;10457;48.770;11.446;2023-02-24T13:43:19;48.60;;;26.43;;
20597;SDS011;10457;48.770;11.446;2023-02-24T13:48:49;47.67;;;24.27;;
20597;SDS011;10457;48.770;11.446;2023-02-24T13:54:46;46.77;;;25.47;;
20597;SDS011;10457;48.770;11.446;2023-02-24T14:00:26;42.73;;;21.63;;
20597;SDS011;10457;48.770;11.446;2023-02-24T14:05:57;42.13;;;21.53;;
20597;SDS011;10457;48.770;11.446;2023-02-24T14:11:22;47.63;;;24.13;;
20597;SDS011;10457;48.770;11.446;2023-02-24T14:16:49;42.87;;;24.33;;
20597;SDS011;10457;48.770;11.446;2023-02-24T14:22:16;42.87;;;21.60;;
20597;SDS011;10457;48.770;11.446;2023-02-24T14:27:41;34.77;;;18.90;;
20597;SDS011;10457;48.770;11.446;2023-02-24T14:33:05;40.13;;;19.77;;
20597;SDS011;10457;48.770;11.446;2023-02-24T14:38:30;36.73;;;20.40;;
20597;SDS011;10457;48.770;11.446;2023-02-24T14:43:54;41.00;;;20.70;;
20597;SDS011;10457;48.770;11.446;2023-02-24T14:49:17;47.07;;;22.30;;
20597;SDS011;10457;48.770;11.446;2023-02-24T14:54:45;49.33;;;22.57;;
20597;SDS011;10457;48.770;11.446;2023-02-24T15:00:14;46.27;;;21.57;;
20597;SDS011;10457;48.770;11.446;2023-02-24T15:05:43;42.60;;;23.27;;
20597;SDS011;10457;48.770;11.446;2023-02-24T15:11:17;49.67;;;21.80;;
20597;SDS011;10457;48.770;11.446;2023-02-24T15:16:41;44.43;;;20.10;;
20597;SDS011;10457;48.770;11.446;2023-02-24T15:22:15;38.53;;;18.73;;
20597;SDS011;10457;48.770;11.446;2023-02-24T15:27:49;26.90;;;14.13;;
20597;SDS011;10457;48.770;11.446;2023-02-24T15:33:13;38.80;;;18.70;;
20597;SDS011;10457;48.770;11.446;2023-02-24T15:38:41;42.23;;;17.93;;
20597;SDS011;10457;48.770;11.446;2023-02-24T15:44:04;40.97;;;18.13;;
20597;SDS011;10457;48.770;11.446;2023-02-24T15:49:26;40.03;;;17.13;;
20597;SDS011;10457;48.770;11.446;2023-02-24T15:54:47;32.97;;;16.50;;
20597;SDS011;10457;48.770;11.446;2023-02-24T16:00:12;38.60;;;17.20;;
20597;SDS011;10457;48.770;11.446;2023-02-24T16:05:37;36.20;;;16.00;;
20597;SDS011;10457;48.770;11.446;2023-02-24T16:10:58;35.33;;;15.60;;
20597;SDS011;10457;48.770;11.446;2023-02-24T16:16:21;29.73;;;13.60;;
20597;SDS011;10457;48.770;11.446;2023-02-24T16:21:44;31.20;;;15.10;;
20597;SDS011;10457;48.770;11.446;2023-02-24T16:27:07;32.57;;;15.03;;
20597;SDS011;10457;48.770;11.446;2023-02-24T16:32:34;36.77;;;15.80;;
20597;SDS011;10457;48.770;11.446;2023-02-24T16:37:55;28.67;;;15.23;;
20597;SDS011;10457;48.770;11.446;2023-02-24T16:43:19;38.73;;;17.50;;
20597;SDS011;10457;48.770;11.446;2023-02-24T16:48:42;64.47;;;28.40;;
20597;SDS011;10457;48.770;11.446;2023-02-24T16:54:07;32.17;;;16.10;;
20597;SDS011;10457;48.770;11.446;2023-02-24T16:59:29;28.33;;;15.17;;
20597;SDS011;10457;48.770;11.446;2023-02-24T17:04:51;28.13;;;17.60;;
20597;SDS011;10457;48.770;11.446;2023-02-24T17:10:13;43.27;;;18.43;;
20597;SDS011;10457;48.770;11.446;2023-02-24T17:15:34;35.47;;;16.83;;
20597;SDS011;10457;48.770;11.446;2023-02-24T17:20:58;34.50;;;16.93;;
20597;SDS011;10457;48.770;11.446;2023-02-24T17:26:19;36.03;;;15.50;;
20597;SDS011;10457;48.770;11.446;2023-02-24T17:31:49;31.90;;;16.10;;
20597;SDS011;10457;48.770;11.446;2023-02-24T17:37:10;35.27;;;17.37;;
20597;SDS011;10457;48.770;11.446;2023-02-24T17:42:32;35.50;;;19.40;;
20597;SDS011;10457;48.770;11.446;2023-02-24T17:47:55;31.43;;;16.27;;
20597;SDS011;10457;48.770;11.446;2023-02-24T17:53:17;37.47;;;16.30;;
20597;SDS011;10457;48.770;11.446;2023-02-24T17:58:38;32.60;;;16.17;;
20597;SDS011;10457;48.770;11.446;2023-02-24T18:04:02;37.30;;;16.67;;
20597;SDS011;10457;48.770;11.446;2023-02-24T18:09:23;39.13;;;16.70;;
20597;SDS011;10457;48.770;11.446;2023-02-24T18:14:45;35.13;;;16.80;;
20597;SDS011;10457;48.770;11.446;2023-02-24T18:20:10;37.87;;;17.63;;
20597;SDS011;10457;48.770;11.446;2023-02-24T18:25:32;35.70;;;16.43;;
20597;SDS011;10457;48.770;11.446;2023-02-24T18:30:54;37.17;;;16.67;;
20597;SDS011;10457;48.770;11.446;2023-02-24T18:36:17;38.27;;;16.60;;
20597;SDS011;10457;48.770;11.446;2023-02-24T18:41:39;40.53;;;17.23;;
20597;SDS011;10457;48.770;11.446;2023-02-24T18:47:01;37.10;;;17.00;;
20597;SDS011;10457;48.770;11.446;2023-02-24T18:52:29;48.80;;;18.07;;
20597;SDS011;10457;48.770;11.446;2023-02-24T18:57:50;44.03;;;17.30;;
20597;SDS011;10457;48.770;11.446;2023-02-24T19:03:12;41.33;;;19.20;;
20597;SDS011;10457;48.770;11.446;2023-02-24T19:08:36;41.30;;;18.27;;
20597;SDS011;10457;48.770;11.446;2023-02-24T19:13:58;28.97;;;14.87;;
20597;SDS011;10457;48.770;11.446;2023-02-24T19:19:19;22.60;;;12.10;;
20597;SDS011;10457;48.770;11.446;2023-02-24T19:24:42;26.40;;;11.73;;
20597;SDS011;10457;48.770;11.446;2023-02-24T19:30:05;22.53;;;10.63;;
20597;SDS011;10457;48.770;11.446;2023-02-24T19:35:28;23.03;;;12.37;;
20597;SDS011;10457;48.770;11.446;2023-02-24T19:40:51;22.90;;;9.17;;
20597;SDS011;10457;48.770;11.446;2023-02-24T19:46:12;14.50;;;7.90;;
20597;SDS011;10457;48.770;11.446;2023-02-24T19:51:35;20.90;;;9.10;;
20597;SDS011;10457;48.770;11.446;2023-02-24T19:56:58;16.20;;;9.20;;
20597;SDS011;10457;48.770;11.446;2023-02-24T20:02:20;16.80;;;8.87;;
20597;SDS011;10457;48.770;11.446;2023-02-24T20:07:41;20.47;;;9.47;;
20597;SDS011;10457;48.770;11.446;2023-02-24T20:13:05;19.33;;;8.53;;
20597;SDS011;10457;48.770;11.446;2023-02-24T20:18:26;14.10;;;8.40;;
20597;SDS011;10457;48.770;11.446;2023-02-24T20:23:48;13.00;;;6.10;;
20597;SDS011;10457;48.770;11.446;2023-02-24T20:29:12;15.70;;;8.10;;
20597;SDS011;10457;48.770;11.446;2023-02-24T20:34:34;19.37;;;10.17;;
20597;SDS011;10457;48.770;11.446;2023-02-24T20:39:57;21.23;;;9.87;;
20597;SDS011;10457;48.770;11.446;2023-02-24T20:45:20;16.73;;;7.60;;
20597;SDS011;10457;48.770;11.446;2023-02-24T20:50:41;17.67;;;9.27;;
20597;SDS011;10457;48.770;11.446;2023-02-24T20:56:03;17.33;;;7.97;;
20597;SDS011;10457;48.770;11.446;2023-02-24T21:01:32;23.57;;;12.57;;
20597;SDS011;10457;48.770;11.446;2023-02-24T21:06:55;27.23;;;14.23;;
20597;SDS011;10457;48.770;11.446;2023-02-24T21:12:17;26.37;;;13.07;;
20597;SDS011;10457;48.770;11.446;2023-02-24T21:17:40;23.03;;;14.27;;
20597;SDS011;10457;48.770;11.446;2023-02-24T21:23:01;27.83;;;14.50;;
20597;SDS011;10457;48.770;11.446;2023-02-24T21:28:26;24.60;;;13.33;;
20597;SDS011;10457;48.770;11.446;2023-02-24T21:33:52;19.70;;;11.87;;
20597;SDS011;10457;48.770;11.446;2023-02-24T21:39:14;24.70;;;12.93;;
20597;SDS011;10457;48.770;11.446;2023-02-24T21:44:36;19.50;;;11.33;;
20597;SDS011;10457;48.770;11.446;2023-02-24T21:50:01;28.63;;;12.13;;
20597;SDS011;10457;48.770;11.446;2023-02-24T21:55:23;26.17;;;12.63;;
20597;SDS011;10457;48.770;11.446;2023-02-24T22:00:44;25.00;;;12.43;;
20597;SDS011;10457;48.770;11.446;2023-02-24T22:06:08;11.97;;;6.13;;
20597;SDS011;10457;48.770;11.446;2023-02-24T22:11:32;9.00;;;4.23;;
20597;SDS011;10457;48.770;11.446;2023-02-24T22:16:57;8.30;;;3.87;;
20597;SDS011;10457;48.770;11.446;2023-02-24T22:22:20;4.13;;;2.47;;
20597;SDS011;10457;48.770;11.446;2023-02-24T22:27:41;5.10;;;2.03;;
20597;SDS011;10457;48.770;11.446;2023-02-24T22:33:03;3.37;;;2.10;;
20597;SDS011;10457;48.770;11.446;2023-02-24T22:38:26;4.23;;;1.67;;
20597;SDS011;10457;48.770;11.446;2023-02-24T22:43:51;2.97;;;1.03;;
20597;SDS011;10457;48.770;11.446;2023-02-24T22:49:12;3.43;;;1.57;;
20597;SDS011;10457;48.770;11.446;2023-02-24T22:54:36;3.43;;;2.00;;
20597;SDS011;10457;48.770;11.446;2023-02-24T22:59:59;2.57;;;1.17;;
20597;SDS011;10457;48.770;11.446;2023-02-24T23:05:23;2.00;;;1.50;;
20597;SDS011;10457;48.770;11.446;2023-02-24T23:10:46;1.93;;;1.37;;
20597;SDS011;10457;48.770;11.446;2023-02-24T23:16:08;5.30;;;1.73;;
20597;SDS011;10457;48.770;11.446;2023-02-24T23:21:32;3.93;;;2.23;;
20597;SDS011;10457;48.770;11.446;2023-02-24T23:26:57;1.23;;;0.90;;
20597;SDS011;10457;48.770;11.446;2023-02-24T23:32:20;3.60;;;1.53;;
20597;SDS011;10457;48.770;11.446;2023-02-24T23:37:41;4.00;;;1.30;;
20597;SDS011;10457;48.770;11.446;2023-02-24T23:43:04;3.13;;;1.53;;
20597;SDS011;10457;48.770;11.446;2023-02-24T23:48:26;1.33;;;1.23;;
20597;SDS011;10457;48.770;11.446;2023-02-24T23:53:47;3.13;;;1.83;;
20597;SDS011;10457;48.770;11.446;2023-02-24T23:59:10;3.20;;;1.90;;
